createdAt,value
2023-11-01T00:00:24.837Z,96089.84
2023-11-01T00:02:51.389Z,96102.16
2023-11-01T00:05:17.888Z,96096.50
2023-11-01T00:07:44.940Z,96095.19
2023-11-01T00:10:11.369Z,96094.38
2023-11-01T00:12:38.570Z,96094.97
2023-11-01T00:15:05.915Z,96096.25
2023-11-01T00:17:32.419Z,96095.16
2023-11-01T00:19:58.934Z,96097.59
2023-11-01T00:22:25.345Z,96099.72
2023-11-01T00:24:51.855Z,96099.28
2023-11-01T00:27:18.258Z,96103.00
2023-11-01T00:29:44.891Z,96097.63
2023-11-01T00:32:11.343Z,96092.97
2023-11-01T00:34:37.756Z,96090.13
2023-11-01T00:37:04.475Z,96093.25
2023-11-01T00:39:31.118Z,96087.81
2023-11-01T00:41:57.595Z,96081.81
2023-11-01T00:44:23.970Z,96082.41
2023-11-01T00:46:51.244Z,96079.97
2023-11-01T00:49:17.701Z,96080.50
2023-11-01T00:51:44.168Z,96082.00
2023-11-01T00:54:10.709Z,96081.25
2023-11-01T00:56:37.210Z,96080.81
2023-11-01T00:59:03.667Z,96078.19
2023-11-01T01:01:30.085Z,96073.66
2023-11-01T01:03:56.593Z,96067.56
2023-11-01T01:06:23.096Z,96072.59
2023-11-01T01:08:49.554Z,96071.28
2023-11-01T01:11:16.056Z,96066.72
2023-11-01T01:13:42.445Z,96062.31
2023-11-01T01:16:08.990Z,96054.59
2023-11-01T01:18:35.486Z,96064.22
2023-11-01T01:21:02.706Z,96058.13
2023-11-01T01:23:29.165Z,96059.16
2023-11-01T01:25:55.613Z,96051.69
2023-11-01T01:28:22.393Z,96041.56
2023-11-01T01:30:48.801Z,96048.47
2023-11-01T01:33:15.337Z,96042.63
2023-11-01T01:35:41.771Z,96039.63
2023-11-01T01:38:08.317Z,96036.28
2023-11-01T01:40:35.343Z,96024.63
2023-11-01T01:43:19.217Z,96022.84
2023-11-01T01:45:46.811Z,96019.25
2023-11-01T01:48:13.601Z,96024.28
2023-11-01T01:50:40.480Z,96017.97
2023-11-01T01:53:07.603Z,96010.59
2023-11-01T01:55:34.788Z,96017.19
2023-11-01T01:58:01.524Z,96008.22
2023-11-01T02:00:29.191Z,96014.25
2023-11-01T02:02:55.818Z,96015.47
2023-11-01T02:05:22.603Z,96003.19
2023-11-01T02:07:49.224Z,95993.28
2023-11-01T02:10:15.861Z,95988.75
2023-11-01T02:12:42.573Z,95989.19
2023-11-01T02:15:09.380Z,95985.22
2023-11-01T02:17:35.822Z,95991.72
2023-11-01T02:20:03.173Z,95986.78
2023-11-01T02:22:29.940Z,95976.00
2023-11-01T02:24:56.802Z,95975.44
2023-11-01T02:27:23.193Z,95983.84
2023-11-01T02:29:49.662Z,95984.06
2023-11-01T02:32:16.325Z,95976.34
2023-11-01T02:34:42.727Z,95969.72
2023-11-01T02:37:09.314Z,95973.00
2023-11-01T02:39:36.704Z,95957.81
2023-11-01T02:42:03.138Z,95961.16
2023-11-01T02:44:29.848Z,95953.81
2023-11-01T02:46:56.266Z,95950.53
2023-11-01T02:49:23.514Z,95946.78
2023-11-01T02:51:49.916Z,95948.56
2023-11-01T02:54:16.338Z,95956.28
2023-11-01T02:56:42.812Z,95950.06
2023-11-01T02:59:09.253Z,95955.25
2023-11-01T03:01:37.294Z,95951.81
2023-11-01T03:04:04.949Z,95956.81
2023-11-01T03:06:31.530Z,95952.53
2023-11-01T03:08:57.955Z,95945.19
2023-11-01T03:11:24.500Z,95947.44
2023-11-01T03:13:50.888Z,95949.50
2023-11-01T03:16:17.287Z,95945.31
2023-11-01T03:18:45.508Z,95936.69
2023-11-01T03:21:11.907Z,95931.78
2023-11-01T03:23:38.368Z,95940.84
2023-11-01T03:26:04.969Z,95933.34
2023-11-01T03:28:31.368Z,95932.31
2023-11-01T03:31:00.106Z,95929.06
2023-11-01T03:33:27.205Z,95923.84
2023-11-01T03:35:53.685Z,95915.22
2023-11-01T03:38:20.576Z,95908.56
2023-11-01T03:40:46.984Z,95903.78
2023-11-01T03:43:13.416Z,95910.66
2023-11-01T03:45:39.784Z,95905.28
2023-11-01T03:48:06.744Z,95904.00
2023-11-01T03:50:33.378Z,95903.56
2023-11-01T03:53:00.475Z,95907.81
2023-11-01T03:55:26.903Z,95909.13
2023-11-01T03:57:53.352Z,95899.88
2023-11-01T04:00:23.147Z,95903.00
2023-11-01T04:02:51.308Z,95900.09
2023-11-01T04:05:18.338Z,95897.81
2023-11-01T04:07:45.647Z,95891.16
2023-11-01T04:10:12.251Z,95894.44
2023-11-01T04:12:39.247Z,95901.25
2023-11-01T04:15:09.724Z,95901.00
2023-11-01T04:17:36.114Z,95884.00
2023-11-01T04:20:04.205Z,95889.75
2023-11-01T04:22:30.588Z,95881.31
2023-11-01T04:24:56.980Z,95880.06
2023-11-01T04:27:23.801Z,95865.31
2023-11-01T04:29:55.223Z,95870.97
2023-11-01T04:32:22.939Z,95866.69
2023-11-01T04:34:51.968Z,95858.16
2023-11-01T04:37:18.371Z,95862.16
2023-11-01T04:39:47.420Z,95868.38
2023-11-01T04:42:17.240Z,95871.63
2023-11-01T04:44:46.715Z,95861.56
2023-11-01T04:47:13.346Z,95863.66
2023-11-01T04:49:40.261Z,95861.13
2023-11-01T04:52:10.460Z,95858.22
2023-11-01T04:54:36.862Z,95852.53
2023-11-01T04:57:03.395Z,95857.97
2023-11-01T04:59:30.954Z,95848.31
2023-11-01T05:01:58.497Z,95849.16
2023-11-01T05:04:25.301Z,95839.00
2023-11-01T05:06:52.083Z,95840.63
2023-11-01T05:09:18.977Z,95843.16
2023-11-01T05:11:47.670Z,95849.22
2023-11-01T05:14:14.706Z,95837.38
2023-11-01T05:16:41.314Z,95843.03
2023-11-01T05:19:09.591Z,95833.00
2023-11-01T05:21:39.969Z,95837.66
2023-11-01T05:24:07.161Z,95826.91
2023-11-01T05:26:35.791Z,95828.06
2023-11-01T05:29:03.572Z,95820.22
2023-11-01T05:31:29.957Z,95822.81
2023-11-01T05:33:58.299Z,95825.44
2023-11-01T05:36:25.604Z,95827.75
2023-11-01T05:38:52.048Z,95826.56
2023-11-01T05:41:18.473Z,95826.91
2023-11-01T05:43:45.236Z,95827.34
2023-11-01T05:46:11.738Z,95827.66
2023-11-01T05:48:38.283Z,95833.03
2023-11-01T05:51:06.188Z,95833.84
2023-11-01T05:53:33.109Z,95826.44
2023-11-01T05:56:08.288Z,95826.75
2023-11-01T05:58:36.729Z,95823.16
2023-11-01T06:01:03.957Z,95820.53
2023-11-01T06:03:32.570Z,95811.31
2023-11-01T06:05:59.892Z,95799.88
2023-11-01T06:08:26.693Z,95796.59
2023-11-01T06:10:55.154Z,95787.13
2023-11-01T06:13:22.228Z,95795.94
2023-11-01T06:15:51.137Z,95792.09
2023-11-01T06:18:18.888Z,95783.53
2023-11-01T06:20:45.472Z,95779.81
2023-11-01T06:23:11.993Z,95775.53
2023-11-01T06:25:38.377Z,95780.34
2023-11-01T06:28:04.834Z,95776.75
2023-11-01T06:30:31.309Z,95774.81
2023-11-01T06:32:58.085Z,95777.28
2023-11-01T06:35:24.801Z,95781.41
2023-11-01T06:37:51.199Z,95782.72
2023-11-01T06:40:17.636Z,95777.22
2023-11-01T06:42:44.140Z,95783.78
2023-11-01T06:45:11.772Z,95787.69
2023-11-01T06:47:38.465Z,95788.84
2023-11-01T06:50:05.135Z,95789.25
2023-11-01T06:52:32.434Z,95785.38
2023-11-01T06:54:58.880Z,95785.22
2023-11-01T06:57:25.620Z,95785.22
2023-11-01T06:59:52.081Z,95789.06
2023-11-01T07:02:18.581Z,95786.31
2023-11-01T07:04:45.547Z,95782.84
2023-11-01T07:07:15.028Z,95782.72
2023-11-01T07:09:42.322Z,95779.66
2023-11-01T07:12:08.776Z,95775.00
2023-11-01T07:14:35.226Z,95770.44
2023-11-01T07:17:02.180Z,95777.28
2023-11-01T07:19:28.589Z,95774.09
2023-11-01T07:21:54.969Z,95782.00
2023-11-01T07:24:21.425Z,95787.25
2023-11-01T07:26:48.508Z,95782.31
2023-11-01T07:29:14.931Z,95785.19
2023-11-01T07:31:41.401Z,95785.16
2023-11-01T07:34:07.840Z,95796.94
2023-11-01T07:36:34.233Z,95792.78
2023-11-01T07:39:00.624Z,95792.34
2023-11-01T07:41:27.361Z,95795.03
2023-11-01T07:43:53.758Z,95787.94
2023-11-01T07:46:20.191Z,95770.28
2023-11-01T07:48:48.099Z,95765.88
2023-11-01T07:51:14.522Z,95750.84
2023-11-01T07:53:40.994Z,95750.78
2023-11-01T07:56:07.463Z,95745.06
2023-11-01T07:58:34.241Z,95745.88
2023-11-01T08:01:01.172Z,95747.25
2023-11-01T08:03:28.166Z,95758.44
2023-11-01T08:05:54.840Z,95753.81
2023-11-01T08:08:21.547Z,95755.53
2023-11-01T08:10:48.100Z,95755.09
2023-11-01T08:13:16.517Z,95770.03
2023-11-01T08:15:43.372Z,95764.97
2023-11-01T08:18:11.286Z,95771.19
2023-11-01T08:20:39.131Z,95763.16
2023-11-01T08:23:05.745Z,95761.34
2023-11-01T08:25:32.400Z,95764.72
2023-11-01T08:27:58.901Z,95767.88
2023-11-01T08:30:25.355Z,95765.41
2023-11-01T08:32:52.008Z,95755.72
2023-11-01T08:35:18.468Z,95753.16
2023-11-01T08:37:45.094Z,95760.78
2023-11-01T08:40:11.909Z,95766.06
2023-11-01T08:42:38.385Z,95763.81
2023-11-01T08:45:05.240Z,95753.03
2023-11-01T08:47:43.712Z,95755.22
2023-11-01T08:50:13.451Z,95751.94
2023-11-01T08:52:41.776Z,95744.41
2023-11-01T08:55:09.044Z,95749.81
2023-11-01T08:57:35.471Z,95751.09
2023-11-01T09:00:02.833Z,95739.16
2023-11-01T09:02:29.459Z,95744.19
2023-11-01T09:04:56.116Z,95749.78
2023-11-01T09:07:23.134Z,95744.72
2023-11-01T09:09:55.607Z,95751.97
2023-11-01T09:12:23.716Z,95755.22
2023-11-01T09:14:50.169Z,95758.53
2023-11-01T09:17:17.860Z,95758.22
2023-11-01T09:19:44.609Z,95764.03
2023-11-01T09:22:11.034Z,95754.19
2023-11-01T09:24:37.486Z,95759.00
2023-11-01T09:27:04.322Z,95760.63
2023-11-01T09:29:30.772Z,95754.56
2023-11-01T09:31:57.265Z,95750.34
2023-11-01T09:34:26.806Z,95752.13
2023-11-01T09:36:53.303Z,95747.31
2023-11-01T09:39:20.222Z,95756.22
2023-11-01T09:41:55.625Z,95760.63
2023-11-01T09:44:23.245Z,95762.78
2023-11-01T09:46:50.766Z,95763.00
2023-11-01T09:49:17.625Z,95758.91
2023-11-01T09:51:45.622Z,95757.28
2023-11-01T09:54:12.700Z,95751.72
2023-11-01T09:56:45.258Z,95744.19
2023-11-01T09:59:12.382Z,95747.59
2023-11-01T10:01:39.740Z,95745.00
2023-11-01T10:04:07.619Z,95754.03
2023-11-01T10:06:37.042Z,95745.16
2023-11-01T10:09:04.524Z,95740.66
2023-11-01T10:11:32.549Z,95737.56
2023-11-01T10:14:00.252Z,95741.41
2023-11-01T10:16:27.272Z,95742.38
2023-11-01T10:18:54.941Z,95729.66
2023-11-01T10:21:22.953Z,95729.28
2023-11-01T10:23:49.560Z,95719.91
2023-11-01T10:26:16.482Z,95705.97
2023-11-01T10:28:43.243Z,95699.31
2023-11-01T10:31:13.348Z,95701.22
2023-11-01T10:33:41.593Z,95689.81
2023-11-01T10:36:08.433Z,95700.28
2023-11-01T10:38:35.105Z,95693.06
2023-11-01T10:41:03.224Z,95691.19
2023-11-01T10:43:31.190Z,95690.66
2023-11-01T10:46:00.810Z,95691.69
2023-11-01T10:48:30.472Z,95688.28
2023-11-01T10:50:58.681Z,95689.16
2023-11-01T10:53:26.150Z,95667.75
2023-11-01T10:55:54.030Z,95669.72
2023-11-01T10:58:25.525Z,95658.41
2023-11-01T11:01:21.964Z,95664.25
2023-11-01T11:04:12.274Z,95652.44
2023-11-01T11:07:15.617Z,95643.94
2023-11-01T11:09:48.755Z,95635.75
2023-11-01T11:12:15.662Z,95627.69
2023-11-01T11:14:45.907Z,95625.97
2023-11-01T11:17:14.903Z,95615.38
2023-11-01T11:20:06.121Z,95623.72
2023-11-01T11:23:03.316Z,95614.88
2023-11-01T11:25:38.690Z,95612.47
2023-11-01T11:28:23.148Z,95611.13
2023-11-01T11:31:25.107Z,95607.56
2023-11-01T11:33:53.279Z,95594.22
2023-11-01T11:36:21.879Z,95589.94
2023-11-01T11:39:03.108Z,95588.47
2023-11-01T11:41:38.545Z,95581.84
2023-11-01T11:44:20.415Z,95568.50
2023-11-01T11:46:48.991Z,95567.22
2023-11-01T11:49:38.545Z,95557.03
2023-11-01T11:52:16.408Z,95550.41
2023-11-01T11:54:43.398Z,95551.00
2023-11-01T11:57:14.880Z,95548.19
2023-11-01T11:59:42.761Z,95540.91
2023-11-01T12:02:13.271Z,95543.81
2023-11-01T12:04:43.950Z,95535.69
2023-11-01T12:07:19.557Z,95535.06
2023-11-01T12:09:53.229Z,95543.97
2023-11-01T12:12:20.182Z,95535.81
2023-11-01T12:14:56.484Z,95531.03
2023-11-01T12:17:22.933Z,95530.47
2023-11-01T12:19:49.656Z,95533.72
2023-11-01T12:22:16.800Z,95536.84
2023-11-01T12:24:45.556Z,95539.41
2023-11-01T12:27:18.296Z,95532.84
2023-11-01T12:29:47.511Z,95526.03
2023-11-01T12:32:17.203Z,95534.69
2023-11-01T12:34:49.814Z,95536.69
2023-11-01T12:37:30.055Z,95525.50
2023-11-01T12:40:17.831Z,95524.19
2023-11-01T12:43:05.498Z,95523.19
2023-11-01T12:45:33.907Z,95523.13
2023-11-01T12:48:00.495Z,95510.13
2023-11-01T12:50:29.856Z,95501.59
2023-11-01T12:52:56.436Z,95506.94
2023-11-01T12:55:22.982Z,95510.19
2023-11-01T12:57:51.938Z,95517.22
2023-11-01T13:00:20.229Z,95512.03
2023-11-01T13:02:47.533Z,95511.59
2023-11-01T13:05:14.168Z,95513.75
2023-11-01T13:07:41.827Z,95510.66
2023-11-01T13:10:12.376Z,95508.78
2023-11-01T13:12:40.001Z,95510.47
2023-11-01T13:15:07.348Z,95514.97
2023-11-01T13:17:33.807Z,95513.88
2023-11-01T13:20:00.309Z,95520.22
2023-11-01T13:22:26.695Z,95523.22
2023-11-01T13:24:53.082Z,95516.97
2023-11-01T13:27:19.480Z,95516.78
2023-11-01T13:29:49.237Z,95508.09
2023-11-01T13:32:16.394Z,95518.09
2023-11-01T13:34:42.857Z,95521.75
2023-11-01T13:37:09.287Z,95518.41
2023-11-01T13:39:36.146Z,95510.75
2023-11-01T13:42:03.020Z,95521.91
2023-11-01T13:44:29.485Z,95516.78
2023-11-01T13:46:56.135Z,95511.50
2023-11-01T13:49:22.583Z,95507.38
2023-11-01T13:51:49.158Z,95508.50
2023-11-01T13:54:15.706Z,95513.41
2023-11-01T13:56:42.183Z,95513.03
2023-11-01T13:59:08.641Z,95512.03
2023-11-01T14:01:35.044Z,95506.66
2023-11-01T14:04:01.668Z,95510.41
2023-11-01T14:06:28.279Z,95513.84
2023-11-01T14:08:55.157Z,95505.81
2023-11-01T14:11:25.508Z,95509.72
2023-11-01T14:13:54.370Z,95509.69
2023-11-01T14:16:20.783Z,95499.28
2023-11-01T14:18:47.446Z,95490.56
2023-11-01T14:21:14.519Z,95488.50
2023-11-01T14:23:41.113Z,95495.69
2023-11-01T14:26:08.494Z,95496.69
2023-11-01T14:28:34.963Z,95494.16
2023-11-01T14:31:01.611Z,95489.59
2023-11-01T14:33:28.181Z,95484.41
2023-11-01T14:35:54.759Z,95481.31
2023-11-01T14:38:21.475Z,95484.16
2023-11-01T14:40:49.558Z,95475.13
2023-11-01T14:43:18.487Z,95467.19
2023-11-01T14:45:45.264Z,95486.78
2023-11-01T14:48:11.765Z,95493.41
2023-11-01T14:50:38.199Z,95474.06
2023-11-01T14:53:05.019Z,95480.88
2023-11-01T14:55:31.464Z,95472.78
2023-11-01T14:57:58.107Z,95464.50
2023-11-01T15:00:25.673Z,95471.16
2023-11-01T15:02:52.413Z,95468.69
2023-11-01T15:05:19.890Z,95459.22
2023-11-01T15:07:46.956Z,95464.88
2023-11-01T15:10:14.095Z,95455.72
2023-11-01T15:12:40.752Z,95454.16
2023-11-01T15:15:08.917Z,95453.69
2023-11-01T15:17:35.464Z,95454.31
2023-11-01T15:20:01.985Z,95457.09
2023-11-01T15:22:29.199Z,95452.25
2023-11-01T15:24:58.340Z,95452.03
2023-11-01T15:27:25.703Z,95449.72
2023-11-01T15:29:53.139Z,95445.56
2023-11-01T15:32:20.128Z,95451.31
2023-11-01T15:34:49.504Z,95453.50
2023-11-01T15:37:16.263Z,95451.88
2023-11-01T15:39:42.985Z,95445.19
2023-11-01T15:42:10.846Z,95437.88
2023-11-01T15:44:37.348Z,95448.44
2023-11-01T15:47:04.242Z,95451.31
2023-11-01T15:49:30.905Z,95453.25
2023-11-01T15:51:59.695Z,95454.88
2023-11-01T15:54:27.996Z,95451.91
2023-11-01T15:56:54.411Z,95457.63
2023-11-01T15:59:20.850Z,95442.44
2023-11-01T16:01:51.989Z,95447.22
2023-11-01T16:04:18.914Z,95446.91
2023-11-01T16:06:45.465Z,95436.78
2023-11-01T16:09:14.722Z,95438.06
2023-11-01T16:11:42.105Z,95444.00
2023-11-01T16:14:09.226Z,95450.09
2023-11-01T16:16:35.959Z,95456.50
2023-11-01T16:19:02.595Z,95446.81
2023-11-01T16:21:29.043Z,95454.59
2023-11-01T16:23:55.456Z,95467.16
2023-11-01T16:26:22.990Z,95454.19
2023-11-01T16:28:49.770Z,95457.81
2023-11-01T16:31:16.259Z,95446.63
2023-11-01T16:33:42.794Z,95450.53
2023-11-01T16:36:09.813Z,95467.47
2023-11-01T16:38:36.260Z,95459.75
2023-11-01T16:41:02.668Z,95460.06
2023-11-01T16:43:29.810Z,95470.28
2023-11-01T16:45:56.251Z,95478.34
2023-11-01T16:48:22.837Z,95482.47
2023-11-01T16:50:49.593Z,95489.00
2023-11-01T16:53:16.039Z,95486.03
2023-11-01T16:55:42.481Z,95481.09
2023-11-01T16:58:08.875Z,95485.56
2023-11-01T17:00:37.775Z,95493.28
2023-11-01T17:03:04.340Z,95490.69
2023-11-01T17:05:30.816Z,95476.88
2023-11-01T17:07:57.298Z,95489.03
2023-11-01T17:10:23.680Z,95480.16
2023-11-01T17:12:50.289Z,95477.03
2023-11-01T17:15:23.134Z,95473.75
2023-11-01T17:17:50.680Z,95469.00
2023-11-01T17:20:19.946Z,95463.72
2023-11-01T17:22:48.389Z,95461.09
2023-11-01T17:25:32.960Z,95447.63
2023-11-01T17:28:02.466Z,95480.09
2023-11-01T17:30:29.504Z,95482.47
2023-11-01T17:32:56.066Z,95483.13
2023-11-01T17:35:22.681Z,95458.47
2023-11-01T17:37:51.321Z,95465.91
2023-11-01T17:40:18.418Z,95481.47
2023-11-01T17:42:44.856Z,95491.63
2023-11-01T17:45:13.834Z,95478.81
2023-11-01T17:47:44.814Z,95484.94
2023-11-01T17:50:11.506Z,95480.41
2023-11-01T17:52:43.619Z,95483.84
2023-11-01T17:55:14.808Z,95504.34
2023-11-01T17:57:41.460Z,95489.72
2023-11-01T18:00:08.869Z,95481.94
2023-11-01T18:02:41.665Z,95483.03
2023-11-01T18:05:32.413Z,95517.50
2023-11-01T18:07:59.053Z,95521.78
2023-11-01T18:10:26.114Z,95508.00
2023-11-01T18:12:52.504Z,95498.69
2023-11-01T18:15:27.668Z,95508.00
2023-11-01T18:17:55.399Z,95511.94
2023-11-01T18:20:32.568Z,95531.47
2023-11-01T18:22:59.245Z,95543.44
2023-11-01T18:25:28.372Z,95538.84
2023-11-01T18:28:00.733Z,95524.91
2023-11-01T18:30:27.291Z,95532.28
2023-11-01T18:32:53.729Z,95525.41
2023-11-01T18:35:24.914Z,95521.94
2023-11-01T18:37:52.759Z,95514.41
2023-11-01T18:40:25.297Z,95500.63
2023-11-01T18:42:56.940Z,95496.19
2023-11-01T18:45:23.878Z,95482.78
2023-11-01T18:47:54.080Z,95477.03
2023-11-01T18:50:20.593Z,95472.09
2023-11-01T18:52:48.251Z,95488.03
2023-11-01T18:55:24.388Z,95483.44
2023-11-01T18:57:50.854Z,95486.53
2023-11-01T19:00:26.274Z,95465.06
2023-11-01T19:03:08.492Z,95459.31
2023-11-01T19:05:35.944Z,95458.97
2023-11-01T19:08:02.655Z,95457.34
2023-11-01T19:10:37.160Z,95449.47
2023-11-01T19:13:04.594Z,95451.44
2023-11-01T19:15:39.975Z,95445.00
2023-11-01T19:18:08.082Z,95458.59
2023-11-01T19:20:34.871Z,95452.25
2023-11-01T19:23:01.427Z,95447.31
2023-11-01T19:25:27.824Z,95440.31
2023-11-01T19:27:54.450Z,95424.88
2023-11-01T19:30:21.057Z,95418.16
2023-11-01T19:32:47.603Z,95425.88
2023-11-01T19:35:14.026Z,95424.06
2023-11-01T19:37:40.573Z,95421.13
2023-11-01T19:40:09.177Z,95405.69
2023-11-01T19:42:39.394Z,95412.91
2023-11-01T19:45:06.949Z,95417.00
2023-11-01T19:47:33.452Z,95412.41
2023-11-01T19:50:05.292Z,95404.91
2023-11-01T19:52:31.885Z,95406.53
2023-11-01T19:54:58.364Z,95413.56
2023-11-01T19:57:24.796Z,95421.25
2023-11-01T19:59:51.287Z,95420.13
2023-11-01T20:02:19.785Z,95416.66
2023-11-01T20:04:46.314Z,95403.06
2023-11-01T20:07:12.719Z,95401.75
2023-11-01T20:09:39.139Z,95395.22
2023-11-01T20:12:06.393Z,95386.53
2023-11-01T20:14:34.510Z,95382.44
2023-11-01T20:17:03.409Z,95382.44
2023-11-01T20:19:30.341Z,95383.56
2023-11-01T20:21:56.804Z,95376.88
2023-11-01T20:24:23.278Z,95386.88
2023-11-01T20:26:51.005Z,95372.94
2023-11-01T20:29:17.490Z,95364.41
2023-11-01T20:31:45.090Z,95366.41
2023-11-01T20:34:11.589Z,95362.59
2023-11-01T20:36:38.045Z,95363.25
2023-11-01T20:39:05.080Z,95366.22
2023-11-01T20:41:31.561Z,95343.28
2023-11-01T20:43:57.983Z,95357.38
2023-11-01T20:46:24.435Z,95346.91
2023-11-01T20:48:51.586Z,95343.59
2023-11-01T20:51:21.608Z,95343.28
2023-11-01T20:53:48.221Z,95355.38
2023-11-01T20:56:14.702Z,95341.66
2023-11-01T20:58:41.124Z,95336.41
2023-11-01T21:01:07.659Z,95340.66
2023-11-01T21:03:34.253Z,95334.78
2023-11-01T21:06:01.735Z,95337.22
2023-11-01T21:08:28.195Z,95338.88
2023-11-01T21:10:54.968Z,95330.69
2023-11-01T21:13:21.891Z,95337.56
2023-11-01T21:15:48.476Z,95342.31
2023-11-01T21:18:15.042Z,95339.50
2023-11-01T21:20:41.700Z,95339.69
2023-11-01T21:23:08.108Z,95325.75
2023-11-01T21:25:35.778Z,95316.09
2023-11-01T21:28:03.738Z,95326.25
2023-11-01T21:30:30.207Z,95305.44
2023-11-01T21:32:56.740Z,95298.72
2023-11-01T21:35:31.600Z,95300.88
2023-11-01T21:38:04.164Z,95283.69
2023-11-01T21:40:30.734Z,95277.16
2023-11-01T21:42:57.184Z,95268.47
2023-11-01T21:45:46.747Z,95262.22
2023-11-01T21:48:18.421Z,95248.34
2023-11-01T21:51:03.245Z,95236.53
2023-11-01T21:53:36.741Z,95228.00
2023-11-01T21:56:05.063Z,95217.97
2023-11-01T21:58:32.819Z,95226.69
2023-11-01T22:01:08.321Z,95225.22
2023-11-01T22:03:40.417Z,95205.22
2023-11-01T22:06:13.508Z,95197.06
2023-11-01T22:09:05.426Z,95194.06
2023-11-01T22:11:33.953Z,95181.56
2023-11-01T22:14:04.805Z,95170.88
2023-11-01T22:16:34.236Z,95160.47
2023-11-01T22:19:08.806Z,95147.88
2023-11-01T22:21:36.460Z,95135.91
2023-11-01T22:24:04.543Z,95124.13
2023-11-01T22:26:31.070Z,95124.13
2023-11-01T22:29:02.968Z,95109.38
2023-11-01T22:31:35.959Z,95112.84
2023-11-01T22:34:03.018Z,95110.84
2023-11-01T22:36:29.422Z,95094.44
2023-11-01T22:38:55.875Z,95087.56
2023-11-01T22:41:31.655Z,95089.66
2023-11-01T22:43:58.122Z,95086.16
2023-11-01T22:46:24.498Z,95091.50
2023-11-01T22:48:50.963Z,95095.34
2023-11-01T22:51:17.781Z,95092.50
2023-11-01T22:53:44.301Z,95097.16
2023-11-01T22:56:10.898Z,95099.84
2023-11-01T22:58:37.288Z,95096.16
2023-11-01T23:01:03.919Z,95086.25
2023-11-01T23:03:30.415Z,95079.13
2023-11-01T23:05:56.889Z,95078.91
2023-11-01T23:08:23.278Z,95082.00
2023-11-01T23:10:50.630Z,95085.94
2023-11-01T23:13:17.081Z,95093.41
2023-11-01T23:15:43.483Z,95083.44
2023-11-01T23:18:09.968Z,95083.13
2023-11-01T23:20:36.727Z,95083.44
2023-11-01T23:23:03.184Z,95074.81
2023-11-01T23:25:31.766Z,95069.28
2023-11-01T23:28:02.076Z,95067.59
2023-11-01T23:30:53.016Z,95057.41
2023-11-01T23:33:20.063Z,95049.22
2023-11-01T23:35:47.491Z,95042.19
2023-11-01T23:38:15.023Z,95035.06
2023-11-01T23:40:44.260Z,95033.47
2023-11-01T23:43:12.593Z,95025.75
2023-11-01T23:45:41.871Z,95025.56
2023-11-01T23:48:10.049Z,95011.38
2023-11-01T23:50:40.177Z,94993.50
2023-11-01T23:53:18.016Z,94982.81
2023-11-01T23:55:48.604Z,94981.94
2023-11-01T23:58:15.935Z,94973.72
